Time;durP1;ratioP1;P1;durP2;ratioP2;P2;SDS_P1;SDS_P2;PMS_P1;PMS_P2;Temp;Humidity;BMP_temperature;BMP_pressure;BME280_temperature;BME280_humidity;BME280_pressure;Samples;Min_cycle;Max_cycle;Signal;HPM_P1;HPM_P2
2022/08/21 00:02:14;;;;;;;1.30;1.30;;;20.20;51.50;;;;;;5051573;28;20499;-73
2022/08/21 00:04:40;;;;;;;1.30;1.10;;;20.40;50.40;;;;;;5050973;28;20283;-73
2022/08/21 00:07:05;;;;;;;1.30;1.17;;;20.10;52.20;;;;;;5052069;28;20526;-74
2022/08/21 00:09:31;;;;;;;1.30;1.10;;;19.90;53.10;;;;;;5050983;28;20204;-73
2022/08/21 00:11:57;;;;;;;1.30;1.27;;;20.00;52.40;;;;;;5050712;28;20255;-73
2022/08/21 00:14:23;;;;;;;1.30;1.20;;;19.90;52.70;;;;;;5052568;28;20227;-73
2022/08/21 00:16:48;;;;;;;1.30;1.17;;;19.90;51.90;;;;;;5051107;28;20171;-73
2022/08/21 00:19:14;;;;;;;1.30;1.10;;;20.00;51.70;;;;;;5050061;28;20504;-73
2022/08/21 00:21:40;;;;;;;1.30;1.10;;;20.10;50.30;;;;;;5049565;28;20308;-73
2022/08/21 00:24:05;;;;;;;1.30;1.27;;;20.30;49.30;;;;;;5049122;28;20289;-73
2022/08/21 00:26:31;;;;;;;1.30;1.20;;;20.40;48.20;;;;;;5051778;28;20188;-73
2022/08/21 00:28:57;;;;;;;1.30;1.13;;;20.40;49.70;;;;;;5048520;28;20240;-73
2022/08/21 00:31:22;;;;;;;1.30;1.20;;;20.20;49.50;;;;;;5051985;28;20714;-73
2022/08/21 00:33:48;;;;;;;1.30;1.20;;;20.20;49.40;;;;;;5049522;28;20553;-74
2022/08/21 00:36:14;;;;;;;1.30;1.20;;;20.10;50.30;;;;;;5051484;28;20235;-74
2022/08/21 00:38:40;;;;;;;1.30;1.20;;;20.10;50.10;;;;;;5052455;28;20168;-73
2022/08/21 00:41:08;;;;;;;1.30;1.20;;;20.30;50.30;;;;;;5051236;28;20504;-73
2022/08/21 00:43:36;;;;;;;1.30;1.20;;;20.20;50.40;;;;;;5049538;28;20208;-74
2022/08/21 00:46:03;;;;;;;1.30;1.10;;;20.00;50.50;;;;;;5044421;28;20462;-74
2022/08/21 00:48:28;;;;;;;1.30;1.30;;;19.90;51.00;;;;;;5051940;28;20901;-73
2022/08/21 00:51:22;;;;;;;1.30;1.20;;;19.70;53.20;;;;;;5046192;28;20512;-74
2022/08/21 00:53:53;;;;;;;1.30;1.23;;;19.70;52.10;;;;;;5047725;28;20672;-74
2022/08/21 00:56:20;;;;;;;1.30;1.23;;;19.70;51.80;;;;;;5049296;28;20506;-73
2022/08/21 00:58:47;;;;;;;1.30;1.20;;;19.60;52.10;;;;;;5048079;28;20431;-73
2022/08/21 01:01:13;;;;;;;1.30;1.20;;;19.40;53.10;;;;;;5049240;28;20587;-73
2022/08/21 01:03:40;;;;;;;1.30;1.20;;;19.40;53.80;;;;;;5049379;28;20462;-73
2022/08/21 01:06:06;;;;;;;1.30;1.20;;;19.40;53.80;;;;;;5049485;28;20963;-73
2022/08/21 01:08:33;;;;;;;1.30;1.10;;;19.40;52.90;;;;;;5050175;28;20432;-73
2022/08/21 01:10:59;;;;;;;1.30;1.13;;;19.50;52.30;;;;;;5050210;28;20461;-73
2022/08/21 01:13:26;;;;;;;1.30;1.23;;;19.50;52.80;;;;;;5050799;28;20794;-74
2022/08/21 01:15:54;;;;;;;1.30;1.20;;;19.60;52.00;;;;;;5050605;28;20440;-73
2022/08/21 01:18:21;;;;;;;1.30;1.20;;;19.70;51.40;;;;;;5043459;28;20504;-73
2022/08/21 01:21:07;;;;;;;1.30;1.17;;;19.70;51.10;;;;;;5048673;28;20825;-73
2022/08/21 01:23:35;;;;;;;1.30;1.13;;;19.70;50.70;;;;;;5049260;28;21052;-73
2022/08/21 01:26:01;;;;;;;1.27;1.20;;;19.70;50.90;;;;;;5048658;28;20430;-74
2022/08/21 01:28:31;;;;;;;1.30;1.27;;;19.70;50.80;;;;;;5049748;28;20518;-73
2022/08/21 01:30:58;;;;;;;1.30;1.23;;;19.60;52.00;;;;;;5048101;28;20471;-75
2022/08/21 01:33:24;;;;;;;1.30;1.20;;;19.60;51.40;;;;;;5049462;28;20805;-73
2022/08/21 01:35:50;;;;;;;1.30;1.30;;;19.40;52.00;;;;;;5049113;28;20427;-73
2022/08/21 01:38:17;;;;;;;1.30;1.20;;;19.60;51.20;;;;;;5044328;28;20447;-73
2022/08/21 01:40:43;;;;;;;1.30;1.20;;;19.40;51.90;;;;;;5049276;28;20478;-74
2022/08/21 01:43:08;;;;;;;1.30;1.20;;;19.60;50.60;;;;;;5050017;28;20470;-73
2022/08/21 01:45:34;;;;;;;1.30;1.17;;;19.60;50.20;;;;;;5048517;28;20533;-73
2022/08/21 01:47:59;;;;;;;1.30;1.10;;;19.50;50.10;;;;;;5048498;28;20191;-75
2022/08/21 01:50:25;;;;;;;1.30;1.20;;;19.40;50.50;;;;;;5045635;28;20753;-73
2022/08/21 01:52:51;;;;;;;1.30;1.10;;;19.40;52.10;;;;;;5047131;28;20188;-73
2022/08/21 01:55:18;;;;;;;1.30;1.10;;;19.40;51.00;;;;;;5047351;28;20186;-73
2022/08/21 01:57:44;;;;;;;1.30;1.10;;;19.40;50.80;;;;;;5049235;28;20430;-73
2022/08/21 02:00:13;;;;;;;1.30;1.30;;;19.40;50.60;;;;;;5045228;28;20438;-73
2022/08/21 02:02:40;;;;;;;1.30;1.20;;;19.30;50.90;;;;;;5049119;28;20527;-73
2022/08/21 02:05:07;;;;;;;1.30;1.20;;;19.20;52.30;;;;;;5048986;28;20461;-74
2022/08/21 02:07:42;;;;;;;1.30;1.23;;;19.20;51.80;;;;;;5049195;28;20455;-73
2022/08/21 02:10:09;;;;;;;1.30;1.10;;;19.20;51.20;;;;;;5045147;28;20438;-73
2022/08/21 02:12:35;;;;;;;1.30;1.20;;;19.20;50.90;;;;;;5048208;28;20429;-73
2022/08/21 02:15:03;;;;;;;1.30;1.20;;;19.30;50.60;;;;;;5048099;28;21005;-74
2022/08/21 02:17:44;;;;;;;1.30;1.23;;;19.30;50.30;;;;;;5042512;28;20432;-74
2022/08/21 02:20:20;;;;;;;1.30;1.20;;;19.20;51.90;;;;;;5050668;28;20481;-73
2022/08/21 02:22:45;;;;;;;1.50;1.40;;;19.10;52.00;;;;;;5051550;28;20436;-74
2022/08/21 02:25:12;;;;;;;1.30;1.30;;;19.30;50.60;;;;;;5052949;28;21013;-74
2022/08/21 02:27:43;;;;;;;1.30;1.10;;;19.10;51.50;;;;;;5053450;28;20176;-74
2022/08/21 02:30:12;;;;;;;1.30;1.20;;;19.10;51.40;;;;;;5069195;28;20423;-73
2022/08/21 02:32:38;;;;;;;1.30;1.20;;;19.00;52.60;;;;;;5047012;28;20464;-73
2022/08/21 02:35:04;;;;;;;1.30;1.20;;;19.10;51.80;;;;;;5051129;28;20474;-73
2022/08/21 02:37:30;;;;;;;1.30;1.30;;;19.20;51.60;;;;;;5053545;28;20602;-73
2022/08/21 02:39:55;;;;;;;1.30;1.17;;;19.20;50.50;;;;;;5053270;28;20441;-73
2022/08/21 02:42:21;;;;;;;1.30;1.30;;;19.10;51.10;;;;;;5052295;28;20216;-74
2022/08/21 02:44:47;;;;;;;1.30;1.20;;;19.00;51.90;;;;;;5052876;28;20217;-73
2022/08/21 02:47:14;;;;;;;1.30;1.17;;;19.00;51.90;;;;;;5052232;28;20191;-74
2022/08/21 02:49:40;;;;;;;1.30;1.30;;;18.90;51.50;;;;;;5054069;28;20940;-73
2022/08/21 02:52:05;;;;;;;1.30;1.10;;;19.10;51.00;;;;;;5051345;28;20534;-73
2022/08/21 02:54:32;;;;;;;1.30;1.30;;;19.10;51.00;;;;;;5051505;28;20366;-74
2022/08/21 02:56:57;;;;;;;1.30;1.20;;;19.10;50.80;;;;;;5052251;28;20194;-74
2022/08/21 02:59:23;;;;;;;1.30;1.10;;;19.10;51.30;;;;;;5052723;28;20442;-73
2022/08/21 03:01:48;;;;;;;1.30;1.10;;;19.00;52.40;;;;;;5052354;28;20200;-73
2022/08/21 03:04:14;;;;;;;1.30;1.23;;;19.00;52.80;;;;;;5051400;28;20204;-73
2022/08/21 03:06:40;;;;;;;1.30;1.20;;;18.90;52.40;;;;;;5053009;28;20180;-73
2022/08/21 03:09:05;;;;;;;1.30;1.10;;;19.10;51.10;;;;;;5052660;28;20217;-74
2022/08/21 03:11:31;;;;;;;1.30;1.30;;;18.80;51.00;;;;;;5052098;28;20286;-73
2022/08/21 03:13:57;;;;;;;1.30;1.20;;;18.80;50.90;;;;;;5052187;28;20187;-73
2022/08/21 03:16:22;;;;;;;1.30;1.20;;;18.80;51.50;;;;;;5051931;28;20184;-73
2022/08/21 03:18:48;;;;;;;1.30;1.10;;;18.80;52.10;;;;;;5052786;28;20187;-73
2022/08/21 03:21:13;;;;;;;1.30;1.23;;;18.60;51.30;;;;;;5049510;28;20221;-73
2022/08/21 03:23:41;;;;;;;1.30;1.20;;;18.70;51.40;;;;;;5048432;28;20679;-74
2022/08/21 03:26:07;;;;;;;1.30;1.20;;;18.60;53.20;;;;;;5052050;28;20176;-74
2022/08/21 03:28:33;;;;;;;1.30;1.20;;;18.50;53.60;;;;;;5051212;28;20454;-73
2022/08/21 03:30:58;;;;;;;1.30;1.17;;;18.40;53.70;;;;;;5051113;28;20965;-73
2022/08/21 03:33:24;;;;;;;1.30;1.20;;;18.50;54.10;;;;;;5050114;28;20179;-73
2022/08/21 03:35:58;;;;;;;1.30;1.13;;;18.50;52.80;;;;;;5051862;28;20361;-73
2022/08/21 03:38:23;;;;;;;1.30;1.20;;;18.50;51.80;;;;;;5052124;28;20254;-73
2022/08/21 03:40:49;;;;;;;1.37;1.33;;;18.60;52.50;;;;;;5051532;28;20506;-73
2022/08/21 03:43:14;;;;;;;1.30;1.20;;;18.80;50.90;;;;;;5051879;28;20282;-74
2022/08/21 03:45:40;;;;;;;1.30;1.20;;;18.80;51.10;;;;;;5051724;28;20184;-73
2022/08/21 03:48:07;;;;;;;1.30;1.10;;;18.60;51.30;;;;;;5049783;28;20180;-73
2022/08/21 03:50:36;;;;;;;1.30;1.10;;;18.60;52.20;;;;;;5051381;28;20196;-73
2022/08/21 03:53:02;;;;;;;1.30;1.20;;;18.50;51.70;;;;;;5045607;28;20467;-74
2022/08/21 03:55:28;;;;;;;1.30;1.00;;;18.40;52.70;;;;;;5052085;28;20984;-73
2022/08/21 03:57:54;;;;;;;1.30;1.10;;;18.40;52.40;;;;;;5051288;28;20426;-73
2022/08/21 04:00:20;;;;;;;1.30;1.10;;;18.50;52.60;;;;;;5046754;28;20748;-73
2022/08/21 04:02:46;;;;;;;1.30;1.20;;;18.50;52.00;;;;;;5048403;28;20260;-73
2022/08/21 04:05:14;;;;;;;1.30;1.20;;;18.70;51.10;;;;;;5049914;28;20465;-74
2022/08/21 04:07:40;;;;;;;1.30;1.10;;;18.80;50.00;;;;;;5051159;28;20462;-73
2022/08/21 04:10:06;;;;;;;1.30;1.10;;;18.80;49.50;;;;;;5051848;28;20469;-73
2022/08/21 04:12:32;;;;;;;1.30;1.20;;;18.80;49.20;;;;;;5050815;28;20184;-73
2022/08/21 04:14:58;;;;;;;1.30;1.10;;;18.70;50.40;;;;;;5051242;28;20430;-73
2022/08/21 04:17:24;;;;;;;1.30;1.20;;;18.50;50.80;;;;;;5051932;28;20185;-74
2022/08/21 04:19:49;;;;;;;1.30;1.10;;;18.50;50.50;;;;;;5049819;28;20665;-74
2022/08/21 04:22:16;;;;;;;1.30;1.00;;;18.50;50.80;;;;;;5047231;28;20262;-74
2022/08/21 04:24:42;;;;;;;1.30;1.30;;;21.90;53.70;;;;;;5048296;28;20227;-74
2022/08/21 04:27:07;;;;;;;1.30;1.10;;;18.40;51.30;;;;;;5048022;28;20463;-74
2022/08/21 04:29:33;;;;;;;1.30;1.20;;;18.30;51.90;;;;;;5048855;28;20187;-74
2022/08/21 04:31:59;;;;;;;1.30;1.20;;;18.20;52.80;;;;;;5047048;28;20215;-74
2022/08/21 04:34:25;;;;;;;1.30;1.10;;;18.40;51.30;;;;;;5049122;28;20233;-74
2022/08/21 04:36:50;;;;;;;1.30;1.30;;;18.40;52.50;;;;;;5049859;28;20259;-74
2022/08/21 04:39:16;;;;;;;1.30;1.10;;;18.20;52.20;;;;;;5049432;28;20846;-74
2022/08/21 04:41:41;;;;;;;1.30;1.27;;;18.40;52.40;;;;;;5047185;28;20240;-75
2022/08/21 04:44:08;;;;;;;1.30;1.20;;;18.20;52.40;;;;;;5047034;28;20204;-74
2022/08/21 04:46:34;;;;;;;1.30;1.10;;;18.30;51.40;;;;;;5052294;28;20176;-75
2022/08/21 04:48:59;;;;;;;1.30;1.30;;;18.20;52.30;;;;;;5050629;28;20437;-75
2022/08/21 04:51:36;;;;;;;1.30;1.17;;;18.20;52.10;;;;;;5051028;28;20235;-75
2022/08/21 04:54:09;;;;;;;1.30;1.10;;;18.20;52.10;;;;;;5044393;28;20183;-75
2022/08/21 04:56:42;;;;;;;1.30;1.20;;;18.10;52.00;;;;;;5045493;28;20434;-75
2022/08/21 04:59:14;;;;;;;1.30;1.20;;;18.10;53.00;;;;;;5043546;28;20442;-75
2022/08/21 05:01:40;;;;;;;1.30;1.20;;;18.20;53.30;;;;;;5041360;28;20457;-75
2022/08/21 05:04:10;;;;;;;1.30;1.10;;;18.20;54.10;;;;;;5041729;28;20463;-75
2022/08/21 05:06:37;;;;;;;1.30;1.10;;;18.20;53.20;;;;;;5040313;28;20415;-75
2022/08/21 05:09:05;;;;;;;1.30;1.20;;;18.20;52.20;;;;;;5041031;28;20439;-75
2022/08/21 05:11:31;;;;;;;1.30;1.20;;;17.30;51.70;;;;;;5041291;28;20435;-74
2022/08/21 05:13:57;;;;;;;1.30;1.20;;;18.20;53.60;;;;;;5040161;28;20823;-74
2022/08/21 05:16:23;;;;;;;1.30;1.10;;;18.20;53.60;;;;;;5043584;28;20441;-75
2022/08/21 05:18:48;;;;;;;1.30;1.10;;;18.30;54.10;;;;;;5044706;28;20209;-75
2022/08/21 05:21:14;;;;;;;1.30;1.10;;;18.30;53.30;;;;;;5043485;28;20216;-75
2022/08/21 05:23:39;;;;;;;1.30;1.20;;;18.40;53.20;;;;;;5043344;28;20204;-75
2022/08/21 05:26:05;;;;;;;1.30;1.10;;;18.40;53.90;;;;;;5044198;28;20241;-75
2022/08/21 05:28:32;;;;;;;1.30;1.20;;;18.50;53.10;;;;;;5043771;28;20948;-75
2022/08/21 05:30:57;;;;;;;1.30;1.20;;;18.50;53.50;;;;;;5041850;28;20203;-75
2022/08/21 05:33:23;;;;;;;1.30;1.20;;;18.50;54.30;;;;;;5044506;28;20426;-75
2022/08/21 05:35:55;;;;;;;1.30;1.20;;;18.50;55.50;;;;;;5043537;28;20235;-74
2022/08/21 05:38:21;;;;;;;1.30;1.20;;;18.60;54.50;;;;;;5042712;28;20200;-74
2022/08/21 05:40:47;;;;;;;1.27;1.20;;;18.90;53.60;;;;;;5044440;28;20454;-74
2022/08/21 05:43:14;;;;;;;1.30;1.20;;;19.00;52.90;;;;;;5044886;28;20434;-74
2022/08/21 05:45:40;;;;;;;1.30;1.20;;;18.80;53.90;;;;;;5042460;28;20562;-74
2022/08/21 05:48:07;;;;;;;1.30;1.10;;;18.90;52.90;;;;;;5041125;28;20442;-74
2022/08/21 05:50:34;;;;;;;1.30;1.20;;;18.90;53.00;;;;;;5040754;28;20987;-74
2022/08/21 05:53:00;;;;;;;1.30;1.30;;;19.00;53.20;;;;;;5043961;28;20466;-74
2022/08/21 05:55:26;;;;;;;1.30;1.27;;;19.10;52.60;;;;;;5043371;28;20854;-74
2022/08/21 05:57:52;;;;;;;1.30;1.10;;;19.20;51.00;;;;;;5045187;28;20571;-74
2022/08/21 06:00:17;;;;;;;1.30;1.23;;;19.20;50.70;;;;;;5044712;28;20677;-74
2022/08/21 06:02:43;;;;;;;1.30;1.20;;;19.00;50.50;;;;;;5040046;28;20438;-74
2022/08/21 06:05:09;;;;;;;1.30;1.10;;;19.10;50.70;;;;;;5040438;28;20663;-74
2022/08/21 06:07:34;;;;;;;1.30;1.10;;;19.10;50.90;;;;;;5044891;28;20185;-74
2022/08/21 06:10:00;;;;;;;1.30;1.20;;;19.00;50.70;;;;;;5041623;28;20182;-74
2022/08/21 06:12:26;;;;;;;1.30;1.20;;;18.70;52.50;;;;;;5041507;28;20226;-74
2022/08/21 06:14:52;;;;;;;1.30;1.20;;;18.40;53.30;;;;;;5043910;28;20547;-74
2022/08/21 06:17:18;;;;;;;1.30;1.10;;;18.30;54.50;;;;;;5043545;28;20263;-74
2022/08/21 06:19:44;;;;;;;1.30;1.30;;;18.30;55.40;;;;;;5042458;28;20184;-74
2022/08/21 06:22:10;;;;;;;1.30;1.20;;;18.30;55.00;;;;;;5040384;28;20486;-74
2022/08/21 06:24:36;;;;;;;1.27;1.10;;;18.30;53.40;;;;;;5038430;28;20468;-74
2022/08/21 06:27:07;;;;;;;1.30;1.20;;;18.90;53.20;;;;;;5041171;28;20483;-74
2022/08/21 06:29:34;;;;;;;1.30;1.20;;;19.20;51.90;;;;;;5041241;28;20177;-74
2022/08/21 06:32:00;;;;;;;1.30;1.30;;;19.40;49.80;;;;;;5042827;28;20505;-74
2022/08/21 06:34:26;;;;;;;1.30;1.20;;;19.50;48.70;;;;;;5045043;28;20438;-74
2022/08/21 06:36:52;;;;;;;1.30;1.20;;;19.40;48.90;;;;;;5047588;28;20426;-74
2022/08/21 06:39:18;;;;;;;1.30;1.10;;;19.50;49.70;;;;;;5046283;28;20205;-74
2022/08/21 06:41:43;;;;;;;1.30;1.20;;;19.50;48.00;;;;;;5048939;28;20203;-74
2022/08/21 06:44:09;;;;;;;1.30;1.20;;;19.30;48.40;;;;;;5045566;28;20209;-74
2022/08/21 06:46:35;;;;;;;1.30;1.20;;;19.00;49.40;;;;;;5048590;28;20176;-74
2022/08/21 06:49:00;;;;;;;1.30;1.30;;;19.00;49.60;;;;;;5047378;28;20238;-74
2022/08/21 06:51:27;;;;;;;1.30;1.20;;;19.20;50.80;;;;;;5046548;28;20911;-74
2022/08/21 06:53:53;;;;;;;1.30;1.20;;;19.10;51.10;;;;;;5048248;28;20186;-74
2022/08/21 06:56:19;;;;;;;1.30;1.20;;;19.20;50.40;;;;;;5048269;28;20455;-74
2022/08/21 06:58:45;;;;;;;1.30;1.10;;;18.80;52.10;;;;;;5047880;28;20456;-74
2022/08/21 07:01:11;;;;;;;1.30;1.17;;;18.60;53.30;;;;;;5048112;28;20983;-74
2022/08/21 07:03:40;;;;;;;1.30;1.30;;;19.00;52.70;;;;;;5041867;28;20220;-74
2022/08/21 07:06:07;;;;;;;1.30;1.30;;;19.60;53.10;;;;;;5051821;28;20178;-74
2022/08/21 07:08:33;;;;;;;1.30;1.20;;;20.20;51.60;;;;;;5053015;28;20487;-74
2022/08/21 07:11:01;;;;;;;1.30;1.20;;;20.40;47.50;;;;;;5048641;28;20483;-74
2022/08/21 07:13:27;;;;;;;1.33;1.30;;;20.60;47.80;;;;;;5037835;28;20526;-74
2022/08/21 07:15:53;;;;;;;1.30;1.10;;;20.80;47.10;;;;;;5044388;28;20506;-74
2022/08/21 07:18:19;;;;;;;1.27;1.17;;;21.00;47.30;;;;;;5040336;28;20800;-75
2022/08/21 07:20:45;;;;;;;1.23;1.23;;;21.20;47.20;;;;;;5042823;28;20624;-80
2022/08/21 07:23:33;;;;;;;1.30;1.20;;;21.30;46.60;;;;;;5049176;28;20225;-74
2022/08/21 07:26:00;;;;;;;1.23;1.10;;;21.10;42.70;;;;;;5046740;28;20444;-74
2022/08/21 07:28:26;;;;;;;1.27;1.10;;;20.90;42.50;;;;;;5052170;28;20809;-74
2022/08/21 07:30:54;;;;;;;1.30;1.20;;;20.80;44.10;;;;;;5044153;28;20491;-74
2022/08/21 07:33:20;;;;;;;1.30;1.23;;;21.10;46.00;;;;;;5043657;28;20454;-74
2022/08/21 07:35:46;;;;;;;1.30;1.20;;;21.20;42.50;;;;;;5045044;28;20416;-74
2022/08/21 07:38:12;;;;;;;1.20;1.20;;;21.20;41.20;;;;;;5050126;28;20417;-74
2022/08/21 07:40:38;;;;;;;1.20;1.10;;;21.20;41.50;;;;;;5043910;28;20566;-74
2022/08/21 07:43:04;;;;;;;1.20;1.20;;;21.30;40.20;;;;;;5045263;28;20777;-74
2022/08/21 07:45:29;;;;;;;1.30;1.23;;;21.30;39.90;;;;;;5042768;28;20518;-74
2022/08/21 07:47:56;;;;;;;1.30;1.20;;;21.60;41.00;;;;;;5047602;28;20643;-74
2022/08/21 07:50:22;;;;;;;1.30;1.30;;;22.10;40.20;;;;;;5048834;28;20224;-74
2022/08/21 07:52:47;;;;;;;1.23;1.20;;;21.70;38.40;;;;;;5049478;28;20528;-74
2022/08/21 07:55:17;;;;;;;1.30;1.17;;;21.60;39.80;;;;;;5046509;28;20304;-74
2022/08/21 07:57:43;;;;;;;1.23;1.20;;;21.30;39.00;;;;;;5044506;28;20184;-74
2022/08/21 08:00:13;;;;;;;1.30;1.20;;;21.50;38.90;;;;;;5044674;28;20450;-74
2022/08/21 08:02:39;;;;;;;1.30;1.20;;;21.70;39.10;;;;;;5041357;28;20426;-73
2022/08/21 08:05:09;;;;;;;1.30;1.20;;;22.10;41.10;;;;;;5047370;28;21227;-74
2022/08/21 08:07:35;;;;;;;1.20;1.20;;;22.30;39.60;;;;;;5045772;28;20430;-74
2022/08/21 08:10:02;;;;;;;1.30;1.20;;;22.70;37.70;;;;;;5046323;28;20926;-74
2022/08/21 08:12:29;;;;;;;1.30;1.20;;;22.10;38.10;;;;;;5048710;28;20947;-74
2022/08/21 08:14:59;;;;;;;1.30;1.20;;;22.10;39.50;;;;;;5043321;28;20427;-77
2022/08/21 08:17:25;;;;;;;1.20;1.20;;;22.00;38.50;;;;;;5046814;28;20826;-74
2022/08/21 08:19:51;;;;;;;1.27;1.20;;;22.20;37.50;;;;;;5042918;28;20787;-73
2022/08/21 08:22:20;;;;;;;1.20;1.17;;;22.00;37.00;;;;;;5043617;28;20453;-73
2022/08/21 08:24:47;;;;;;;1.20;1.20;;;21.70;38.20;;;;;;5043911;28;21193;-73
2022/08/21 08:27:12;;;;;;;1.20;1.20;;;21.70;36.80;;;;;;5044644;28;20424;-74
2022/08/21 08:29:38;;;;;;;1.20;1.20;;;22.30;38.70;;;;;;5044348;28;20574;-74
2022/08/21 08:32:07;;;;;;;1.30;1.27;;;22.40;36.00;;;;;;5040235;28;20207;-73
2022/08/21 08:34:33;;;;;;;1.27;1.27;;;22.50;34.10;;;;;;5042718;28;20567;-74
2022/08/21 08:36:58;;;;;;;1.30;1.27;;;22.40;34.90;;;;;;5044907;28;21025;-73
2022/08/21 08:39:25;;;;;;;1.20;1.10;;;22.50;36.00;;;;;;5047861;28;20430;-73
2022/08/21 08:41:57;;;;;;;1.20;1.20;;;22.80;34.80;;;;;;5041654;28;20246;-73
2022/08/21 08:44:24;;;;;;;1.20;1.20;;;22.90;32.70;;;;;;5046478;28;20511;-75
2022/08/21 08:46:51;;;;;;;1.30;1.17;;;23.30;33.80;;;;;;5040669;28;20933;-75
2022/08/21 08:49:27;;;;;;;1.23;1.10;;;23.20;31.80;;;;;;5044252;28;20414;-75
2022/08/21 08:52:15;;;;;;;1.20;1.20;;;23.50;33.20;;;;;;5041720;28;20445;-75
2022/08/21 08:54:51;;;;;;;1.20;1.13;;;23.70;34.60;;;;;;5030504;28;20505;-75
2022/08/21 08:57:19;;;;;;;1.20;1.13;;;24.00;32.30;;;;;;5042855;28;20505;-75
2022/08/21 08:59:49;;;;;;;1.20;1.10;;;24.10;30.70;;;;;;5040375;28;20435;-75
2022/08/21 09:02:16;;;;;;;1.30;1.20;;;24.20;30.50;;;;;;5042747;28;20847;-75
2022/08/21 09:04:45;;;;;;;1.20;1.20;;;24.30;32.80;;;;;;5040189;28;20458;-75
2022/08/21 09:07:38;;;;;;;1.20;1.20;;;24.60;31.10;;;;;;5043129;28;20944;-75
2022/08/21 09:10:08;;;;;;;1.20;1.20;;;24.60;31.30;;;;;;5037737;28;20807;-75
2022/08/21 09:12:39;;;;;;;1.20;1.20;;;24.70;29.40;;;;;;5042021;28;20810;-75
2022/08/21 09:15:22;;;;;;;1.20;1.10;;;24.80;29.90;;;;;;5040897;28;20801;-75
2022/08/21 09:17:57;;;;;;;1.20;1.20;;;24.90;30.70;;;;;;5040733;28;20433;-75
2022/08/21 09:20:28;;;;;;;1.23;1.20;;;24.70;31.10;;;;;;5043016;28;21046;-75
2022/08/21 09:23:02;;;;;;;1.20;1.20;;;24.90;29.00;;;;;;5048416;28;20496;-75
2022/08/21 09:25:39;;;;;;;1.20;1.10;;;25.20;29.00;;;;;;5050662;28;20466;-75
2022/08/21 09:28:11;;;;;;;1.20;1.13;;;24.40;29.10;;;;;;5042869;28;20465;-75
2022/08/21 09:30:38;;;;;;;1.30;1.30;;;24.10;29.60;;;;;;5043580;28;20789;-75
2022/08/21 09:33:04;;;;;;;1.27;1.13;;;24.20;29.70;;;;;;5048797;28;20433;-75
2022/08/21 09:35:31;;;;;;;1.20;1.20;;;23.70;30.30;;;;;;5050118;28;20420;-75
2022/08/21 09:38:07;;;;;;;1.20;1.10;;;23.90;31.00;;;;;;5050785;28;20180;-75
2022/08/21 09:40:36;;;;;;;1.23;1.20;;;24.50;31.00;;;;;;5047163;28;20503;-75
2022/08/21 09:43:11;;;;;;;1.27;1.20;;;24.90;27.60;;;;;;5044151;28;20996;-75
2022/08/21 09:45:37;;;;;;;1.20;1.20;;;25.10;27.00;;;;;;5043065;28;20892;-75
2022/08/21 09:48:21;;;;;;;1.30;1.20;;;25.00;28.30;;;;;;5049895;28;20495;-75
2022/08/21 09:50:48;;;;;;;1.20;1.20;;;25.60;28.20;;;;;;5044676;28;20537;-75
2022/08/21 09:53:20;;;;;;;1.20;1.17;;;26.00;27.80;;;;;;5047991;28;20436;-75
2022/08/21 09:58:44;;;;;;;1.27;1.20;;;26.30;25.90;;;;;;5050769;28;20413;-75
2022/08/21 10:01:28;;;;;;;1.23;1.20;;;26.20;27.30;;;;;;5042464;28;20856;-75
2022/08/21 10:04:09;;;;;;;1.20;1.00;;;26.30;25.70;;;;;;5047089;28;20968;-75
2022/08/21 10:06:35;;;;;;;1.20;1.13;;;25.40;28.20;;;;;;5049627;28;20781;-75
2022/08/21 10:09:11;;;;;;;1.20;1.10;;;25.90;27.80;;;;;;5043580;28;20430;-75
2022/08/21 10:11:37;;;;;;;1.20;1.20;;;25.30;26.70;;;;;;5033343;28;20206;-75
2022/08/21 10:14:17;;;;;;;1.20;1.20;;;25.60;26.80;;;;;;5045593;28;20438;-75
2022/08/21 10:16:51;;;;;;;1.20;1.10;;;25.60;28.00;;;;;;5047761;28;20438;-75
2022/08/21 10:20:06;;;;;;;1.27;1.20;;;25.40;26.50;;;;;;5042209;28;20441;-75
2022/08/21 10:22:58;;;;;;;1.20;1.20;;;25.70;27.70;;;;;;5043132;28;20506;-75
2022/08/21 10:25:36;;;;;;;1.20;1.20;;;25.70;26.00;;;;;;5050393;28;20957;-75
2022/08/21 10:28:15;;;;;;;1.30;1.20;;;26.60;26.60;;;;;;5049553;28;20425;-75
2022/08/21 10:30:53;;;;;;;1.30;1.20;;;26.70;24.20;;;;;;5050808;28;20444;-75
2022/08/21 10:33:43;;;;;;;1.20;1.20;;;27.10;23.40;;;;;;5049803;28;20434;-75
2022/08/21 10:36:13;;;;;;;1.20;1.10;;;27.30;23.50;;;;;;5050658;28;20890;-75
2022/08/21 10:39:02;;;;;;;1.30;1.20;;;27.10;23.90;;;;;;5049699;28;20464;-75
2022/08/21 10:41:43;;;;;;;1.20;1.10;;;25.80;24.10;;;;;;5045649;28;20434;-75
2022/08/21 10:44:12;;;;;;;1.20;1.20;;;26.40;23.90;;;;;;5052862;28;20994;-75
2022/08/21 10:46:50;;;;;;;1.20;1.17;;;26.90;23.60;;;;;;5054623;28;20406;-75
2022/08/21 10:49:39;;;;;;;1.30;1.20;;;27.40;23.90;;;;;;5046718;28;20479;-75
2022/08/21 10:52:28;;;;;;;1.27;1.20;;;27.50;22.20;;;;;;5050881;28;20556;-75
2022/08/21 10:55:31;;;;;;;1.20;1.10;;;27.80;23.60;;;;;;5052656;28;20438;-75
2022/08/21 10:58:09;;;;;;;1.20;1.10;;;28.00;23.50;;;;;;5023053;28;20507;-75
2022/08/21 11:00:49;;;;;;;1.20;1.20;;;28.00;22.50;;;;;;5016229;28;20454;-75
2022/08/21 11:03:28;;;;;;;1.27;1.20;;;28.60;24.70;;;;;;5024950;28;20901;-75
2022/08/21 11:06:18;;;;;;;1.20;1.10;;;29.10;21.90;;;;;;5011482;28;20451;-75
2022/08/21 11:08:50;;;;;;;1.20;1.10;;;29.10;21.70;;;;;;5010894;28;20432;-75
2022/08/21 11:11:30;;;;;;;1.20;1.10;;;28.80;20.30;;;;;;5013116;28;20451;-75
2022/08/21 11:14:10;;;;;;;1.20;1.10;;;28.60;20.50;;;;;;5031300;28;20415;-75
2022/08/21 11:16:43;;;;;;;1.20;1.10;;;29.00;20.90;;;;;;5024087;28;20438;-75
2022/08/21 11:19:25;;;;;;;1.20;1.10;;;28.30;20.60;;;;;;5018117;28;20478;-74
2022/08/21 11:22:15;;;;;;;1.20;1.10;;;27.50;21.80;;;;;;5017822;28;20470;-74
2022/08/21 11:24:56;;;;;;;1.20;1.10;;;27.30;21.50;;;;;;5006451;28;20471;-74
2022/08/21 11:27:26;;;;;;;1.20;1.00;;;28.20;21.30;;;;;;5020736;28;20434;-74
2022/08/21 11:29:56;;;;;;;1.20;1.00;;;30.00;19.80;;;;;;5045651;22;20455;-72
2022/08/21 11:32:24;;;;;;;1.20;1.00;;;31.30;17.70;;;;;;5063639;28;20799;-72
2022/08/21 11:35:21;;;;;;;1.20;0.90;;;32.60;18.60;;;;;;5069971;28;20428;-69
2022/08/21 11:38:02;;;;;;;1.20;1.00;;;33.60;16.60;;;;;;5070424;28;20413;-72
2022/08/21 11:40:49;;;;;;;1.20;0.90;;;32.20;16.30;;;;;;5072251;28;20449;-69
2022/08/21 11:43:29;;;;;;;1.20;0.90;;;32.90;14.20;;;;;;5071883;28;20915;-69
2022/08/21 11:46:02;;;;;;;1.20;1.00;;;32.20;15.00;;;;;;5065390;28;20937;-72
2022/08/21 11:49:06;;;;;;;1.20;0.90;;;32.60;14.80;;;;;;5070144;28;20748;-69
2022/08/21 11:51:45;;;;;;;1.20;0.90;;;33.60;13.40;;;;;;5016682;28;20439;-69
2022/08/21 11:54:32;;;;;;;1.20;0.90;;;35.20;12.60;;;;;;5018202;28;20435;-70
2022/08/21 11:57:12;;;;;;;1.20;0.83;;;36.30;11.00;;;;;;5011099;28;20519;-71
2022/08/21 11:59:50;;;;;;;1.20;0.90;;;37.10;12.60;;;;;;5011772;28;20423;-69
2022/08/21 12:02:22;;;;;;;1.20;0.90;;;35.50;10.90;;;;;;5018077;28;20962;-69
2022/08/21 12:05:00;;;;;;;1.20;0.90;;;35.30;10.90;;;;;;5022098;28;20521;-70
2022/08/21 12:07:36;;;;;;;1.20;0.90;;;33.60;12.60;;;;;;5021703;28;20893;-72
2022/08/21 12:10:07;;;;;;;1.20;0.90;;;31.90;14.20;;;;;;5020097;28;20432;-70
2022/08/21 12:12:36;;;;;;;1.20;0.90;;;33.20;13.30;;;;;;5010754;28;20434;-69
2022/08/21 12:15:13;;;;;;;1.20;0.90;;;32.70;13.20;;;;;;5010932;28;20446;-69
2022/08/21 12:17:41;;;;;;;1.20;0.90;;;32.50;13.20;;;;;;5010996;28;20457;-69
2022/08/21 12:20:38;;;;;;;1.20;0.90;;;32.90;14.80;;;;;;5010746;28;20464;-69
2022/08/21 12:23:15;;;;;;;1.20;0.90;;;34.50;14.30;;;;;;5041243;28;20442;-69
2022/08/21 12:26:07;;;;;;;1.20;0.90;;;35.10;13.70;;;;;;5046571;28;20511;-70
2022/08/21 12:28:32;;;;;;;1.20;0.90;;;35.90;12.60;;;;;;5034889;28;20453;-70
2022/08/21 12:30:58;;;;;;;1.20;0.90;;;36.40;10.40;;;;;;5047411;28;20837;-71
2022/08/21 12:33:37;;;;;;;1.20;0.90;;;36.70;11.40;;;;;;5042926;28;20196;-71
2022/08/21 12:36:13;;;;;;;1.20;0.90;;;36.50;11.50;;;;;;5044554;28;20176;-70
2022/08/21 12:38:44;;;;;;;1.20;0.87;;;34.10;11.70;;;;;;5042925;28;20438;-75
2022/08/21 12:41:20;;;;;;;1.20;0.90;;;33.00;13.80;;;;;;5042345;28;20891;-72
2022/08/21 12:43:52;;;;;;;1.20;0.90;;;33.30;13.30;;;;;;5045565;28;20497;-69
2022/08/21 12:46:21;;;;;;;1.20;0.90;;;32.50;14.10;;;;;;5049957;28;20410;-69
2022/08/21 12:48:59;;;;;;;1.20;0.87;;;30.90;15.40;;;;;;5045502;28;20434;-70
2022/08/21 12:51:55;;;;;;;1.20;0.90;;;31.40;17.50;;;;;;5049282;28;20438;-70
2022/08/21 12:54:26;;;;;;;1.20;1.00;;;32.50;16.70;;;;;;5042531;28;20429;-69
2022/08/21 12:56:57;;;;;;;1.20;0.90;;;32.90;15.10;;;;;;5049773;28;20504;-69
2022/08/21 12:59:23;;;;;;;1.20;0.90;;;32.90;13.70;;;;;;5057337;28;20935;-71
2022/08/21 13:01:51;;;;;;;1.20;1.00;;;33.00;14.10;;;;;;5068466;28;20531;-69
2022/08/21 13:04:21;;;;;;;1.20;0.90;;;32.90;13.00;;;;;;5064724;28;20685;-70
2022/08/21 13:06:53;;;;;;;1.20;1.00;;;32.60;13.30;;;;;;5072099;28;20420;-69